Time;durP1;ratioP1;P1;durP2;ratioP2;P2;SDS_P1;SDS_P2;PMS_P1;PMS_P2;Temp;Humidity;BMP_temperature;BMP_pressure;BME280_temperature;BME280_humidity;BME280_pressure;Samples;Min_cycle;Max_cycle;Signal;HPM_P1;HPM_P2
2021/10/20 00:04:04;;;;;;;3.65;1.55;;;19.90;63.40;;;;;;10332658;28;20677;-55
2021/10/20 00:09:05;;;;;;;2.28;1.27;;;19.90;63.40;;;;;;10331710;28;20105;-58
2021/10/20 00:14:06;;;;;;;5.80;1.80;;;19.90;63.40;;;;;;10331957;28;20026;-58
2021/10/20 00:19:06;;;;;;;3.70;1.70;;;19.90;63.40;;;;;;10331531;28;20022;-57
2021/10/20 00:24:07;;;;;;;2.40;1.50;;;19.90;63.50;;;;;;10331798;28;20122;-55
2021/10/20 00:29:07;;;;;;;3.08;1.77;;;19.90;63.50;;;;;;10331731;28;20026;-57
2021/10/20 00:34:08;;;;;;;3.08;1.60;;;19.90;63.50;;;;;;10331461;28;20096;-58
2021/10/20 00:39:08;;;;;;;7.50;1.95;;;19.80;63.40;;;;;;10331431;28;20053;-57
2021/10/20 00:44:09;;;;;;;3.25;2.33;;;19.80;63.40;;;;;;10331413;28;20030;-58
2021/10/20 00:49:10;;;;;;;3.65;1.95;;;19.80;63.50;;;;;;10331077;28;20109;-58
2021/10/20 00:54:10;;;;;;;2.83;1.60;;;19.80;63.50;;;;;;10329984;28;20026;-57
2021/10/20 00:59:11;;;;;;;4.88;2.45;;;19.80;63.50;;;;;;10330952;28;20046;-56
2021/10/20 01:04:11;;;;;;;6.32;2.00;;;19.80;63.50;;;;;;10330264;28;20105;-57
2021/10/20 01:09:12;;;;;;;4.00;2.05;;;19.80;63.50;;;;;;10330233;28;20034;-58
2021/10/20 01:14:13;;;;;;;3.53;1.80;;;19.80;63.50;;;;;;10328526;28;20069;-57
2021/10/20 01:19:15;;;;;;;5.47;1.90;;;19.70;63.40;;;;;;10329528;28;20026;-57
2021/10/20 01:24:15;;;;;;;4.28;2.35;;;19.80;63.50;;;;;;10329288;28;20027;-58
2021/10/20 01:29:16;;;;;;;7.10;1.73;;;19.70;63.50;;;;;;10329389;28;20384;-57
2021/10/20 01:34:17;;;;;;;3.38;2.40;;;19.70;63.50;;;;;;10329033;28;20042;-58
2021/10/20 01:39:20;;;;;;;3.70;2.10;;;19.70;63.40;;;;;;10328972;28;20038;-57
2021/10/20 01:44:22;;;;;;;3.42;2.28;;;19.70;63.40;;;;;;10328828;28;20034;-58
2021/10/20 01:49:23;;;;;;;2.70;1.83;;;19.70;63.40;;;;;;10328229;28;20041;-58
2021/10/20 01:54:24;;;;;;;2.78;1.90;;;19.70;63.40;;;;;;10328518;28;20102;-57
2021/10/20 01:59:24;;;;;;;3.55;2.10;;;19.70;63.40;;;;;;10328182;28;20568;-58
2021/10/20 02:04:25;;;;;;;5.60;2.08;;;19.70;63.40;;;;;;10327401;28;20045;-56
2021/10/20 02:09:25;;;;;;;5.03;2.42;;;19.70;63.30;;;;;;10327694;28;20030;-58
2021/10/20 02:14:26;;;;;;;3.72;2.30;;;19.70;63.30;;;;;;10327983;28;20388;-57
2021/10/20 02:19:27;;;;;;;4.35;1.73;;;19.70;63.30;;;;;;10327525;28;20088;-58
2021/10/20 02:24:28;;;;;;;8.30;3.50;;;19.70;63.10;;;;;;10327714;28;20087;-58
2021/10/20 02:29:31;;;;;;;7.63;2.83;;;19.70;63.20;;;;;;10326241;28;20030;-56
2021/10/20 02:34:31;;;;;;;5.22;2.67;;;19.60;63.20;;;;;;10327409;28;20053;-58
2021/10/20 02:39:32;;;;;;;4.63;2.80;;;19.70;63.20;;;;;;10323727;28;20508;-58
2021/10/20 02:44:32;;;;;;;8.02;2.42;;;19.70;63.20;;;;;;10326739;28;20042;-58
2021/10/20 02:49:33;;;;;;;4.32;2.35;;;19.60;63.10;;;;;;10323100;28;20065;-57
2021/10/20 02:54:33;;;;;;;3.15;2.00;;;19.60;63.10;;;;;;10326465;28;20097;-58
2021/10/20 02:59:34;;;;;;;3.58;2.65;;;19.60;63.20;;;;;;10330712;28;20056;-54
2021/10/20 03:04:34;;;;;;;5.97;2.80;;;19.60;63.20;;;;;;10326132;28;20444;-54
2021/10/20 03:09:35;;;;;;;6.22;2.35;;;19.60;63.20;;;;;;10323695;28;20049;-54
2021/10/20 03:14:36;;;;;;;5.88;2.67;;;19.60;63.20;;;;;;10326193;28;20097;-57
2021/10/20 03:19:36;;;;;;;3.85;2.38;;;19.60;63.20;;;;;;10324520;28;20374;-56
2021/10/20 03:24:37;;;;;;;3.22;1.85;;;19.60;63.20;;;;;;10326244;28;20442;-54
2021/10/20 03:29:37;;;;;;;3.40;2.40;;;19.60;63.30;;;;;;10324043;28;20035;-54
2021/10/20 03:34:38;;;;;;;3.92;2.65;;;19.60;63.70;;;;;;10326085;28;20022;-57
2021/10/20 03:39:38;;;;;;;5.30;2.70;;;19.60;63.20;;;;;;10323441;28;20046;-52
2021/10/20 03:44:39;;;;;;;3.08;2.15;;;19.60;63.10;;;;;;10331847;28;20437;-51
2021/10/20 03:49:39;;;;;;;5.13;2.67;;;19.50;63.10;;;;;;10330751;28;20043;-50
2021/10/20 03:54:40;;;;;;;3.45;2.42;;;19.50;63.20;;;;;;10332313;28;20030;-50
2021/10/20 03:59:43;;;;;;;3.63;2.78;;;19.50;63.10;;;;;;10329332;28;20539;-56
2021/10/20 04:04:43;;;;;;;5.80;3.10;;;19.50;63.10;;;;;;10331685;28;20049;-54
2021/10/20 04:09:44;;;;;;;2.65;1.92;;;19.50;63.20;;;;;;10329536;28;20034;-58
2021/10/20 04:14:44;;;;;;;3.80;2.75;;;19.50;63.10;;;;;;10331128;28;20027;-57
2021/10/20 04:19:45;;;;;;;3.80;2.42;;;19.60;63.00;;;;;;10329162;28;20034;-57
2021/10/20 04:24:45;;;;;;;3.50;2.33;;;19.60;62.90;;;;;;10330755;28;20105;-57
2021/10/20 04:29:46;;;;;;;3.95;2.13;;;19.70;62.90;;;;;;10328861;28;20040;-58
2021/10/20 04:34:46;;;;;;;2.92;1.85;;;19.80;62.70;;;;;;10329998;28;20046;-57
2021/10/20 04:39:47;;;;;;;3.28;2.10;;;20.00;62.60;;;;;;10329248;28;20053;-57
2021/10/20 04:44:47;;;;;;;2.65;1.98;;;20.10;62.30;;;;;;10328700;28;20058;-57
2021/10/20 04:49:49;;;;;;;6.03;2.03;;;20.20;62.20;;;;;;10327820;28;20030;-57
2021/10/20 04:54:50;;;;;;;2.92;1.90;;;20.20;62.10;;;;;;10329438;28;20027;-58
2021/10/20 04:59:51;;;;;;;5.75;2.30;;;20.30;62.10;;;;;;10330264;28;20098;-57
2021/10/20 05:04:51;;;;;;;3.13;1.92;;;20.20;61.90;;;;;;10329868;28;20453;-57
2021/10/20 05:09:52;;;;;;;3.25;2.50;;;20.30;61.90;;;;;;10329694;28;20065;-54
2021/10/20 05:14:53;;;;;;;3.60;2.45;;;20.30;61.80;;;;;;10328608;28;20073;-57
2021/10/20 05:19:53;;;;;;;2.90;1.80;;;20.30;61.80;;;;;;10328879;28;20034;-57
2021/10/20 05:24:54;;;;;;;3.97;2.17;;;20.30;61.80;;;;;;10329406;28;20026;-57
2021/10/20 05:29:54;;;;;;;3.85;1.85;;;20.30;61.70;;;;;;10328815;28;20026;-56
2021/10/20 05:34:55;;;;;;;2.92;1.85;;;20.30;61.50;;;;;;10328939;28;20035;-57
2021/10/20 05:39:56;;;;;;;2.92;1.65;;;20.30;61.40;;;;;;10329018;28;20148;-57
2021/10/20 05:44:56;;;;;;;3.47;2.15;;;20.30;61.30;;;;;;10328854;28;20117;-57
2021/10/20 05:49:57;;;;;;;3.53;2.05;;;20.30;61.30;;;;;;10328547;28;20104;-56
2021/10/20 05:54:58;;;;;;;4.47;2.75;;;20.20;61.30;;;;;;10320078;28;20060;-55
2021/10/20 05:59:59;;;;;;;16.83;3.00;;;20.20;61.30;;;;;;10328776;28;20026;-58
2021/10/20 06:04:59;;;;;;;12.25;3.20;;;20.10;61.60;;;;;;10327221;28;20026;-52
2021/10/20 06:10:00;;;;;;;9.45;3.35;;;20.10;60.30;;;;;;10327064;28;20023;-56
2021/10/20 06:15:00;;;;;;;55.35;9.43;;;20.10;59.70;;;;;;10327950;28;20046;-57
2021/10/20 06:20:03;;;;;;;24.45;6.68;;;20.00;59.90;;;;;;10327611;28;20529;-57
2021/10/20 06:25:04;;;;;;;26.02;6.10;;;20.10;59.50;;;;;;10327265;28;20030;-56
2021/10/20 06:30:06;;;;;;;16.35;5.45;;;20.10;59.70;;;;;;10327127;28;20114;-57
